Time;durP1;ratioP1;P1;durP2;ratioP2;P2;SDS_P1;SDS_P2;PMS_P1;PMS_P2;Temp;Humidity;BMP_temperature;BMP_pressure;BME280_temperature;BME280_humidity;BME280_pressure;Samples;Min_cycle;Max_cycle;Signal;HPM_P1;HPM_P2
2022/07/25 00:00:29;;;;;;;9.77;7.80;;;21.00;99.90;;;21.12;87.74;97037.97;4986170;28;20309;-41
2022/07/25 00:02:55;;;;;;;9.10;7.75;;;21.00;99.90;;;21.11;88.57;97026.41;4980383;28;20092;-40
2022/07/25 00:05:21;;;;;;;10.60;7.47;;;21.00;99.90;;;21.09;89.11;97028.38;4990128;28;20054;-41
2022/07/25 00:07:47;;;;;;;9.07;7.50;;;21.00;99.90;;;21.06;89.74;97028.63;4989548;28;20061;-41
2022/07/25 00:10:12;;;;;;;10.05;7.82;;;21.00;99.90;;;20.99;89.65;97022.09;4972744;28;20389;-41
2022/07/25 00:12:38;;;;;;;8.65;7.57;;;21.00;99.90;;;21.01;89.89;97024.66;4994158;28;20052;-40
2022/07/25 00:15:05;;;;;;;8.88;7.57;;;20.90;99.90;;;20.97;90.27;97016.88;4980928;28;20126;-41
2022/07/25 00:17:31;;;;;;;8.80;7.90;;;20.90;99.90;;;20.96;90.41;97027.72;4990667;28;20034;-40
2022/07/25 00:19:57;;;;;;;9.77;8.13;;;20.90;99.90;;;20.93;91.02;97018.13;4989005;28;20041;-40
2022/07/25 00:22:22;;;;;;;12.23;7.75;;;20.90;99.90;;;20.90;91.87;97017.53;4984830;28;20123;-40
2022/07/25 00:24:48;;;;;;;9.52;8.05;;;20.80;99.90;;;20.86;91.88;97024.97;4987708;28;20040;-40
2022/07/25 00:27:14;;;;;;;9.82;8.50;;;20.80;99.90;;;20.85;92.25;97019.75;4989236;28;20494;-41
2022/07/25 00:29:39;;;;;;;8.60;7.60;;;20.80;99.90;;;20.82;92.01;97017.31;4986437;28;20129;-41
2022/07/25 00:32:05;;;;;;;9.30;7.85;;;20.70;99.90;;;20.76;92.09;97016.00;4993809;28;20767;-41
2022/07/25 00:34:31;;;;;;;9.70;8.70;;;20.70;99.90;;;20.78;92.28;97016.72;4985836;28;20502;-41
2022/07/25 00:36:57;;;;;;;9.60;8.02;;;20.70;99.90;;;20.75;92.20;97014.31;4980784;28;20041;-40
2022/07/25 00:39:23;;;;;;;11.13;8.10;;;20.70;99.90;;;20.72;92.46;97025.28;4976793;28;20378;-40
2022/07/25 00:41:48;;;;;;;8.48;7.55;;;20.60;99.90;;;20.69;92.56;97015.69;4980161;28;20034;-40
2022/07/25 00:44:26;;;;;;;8.57;7.60;;;20.60;99.90;;;20.66;93.30;97021.31;4981133;28;20139;-40
2022/07/25 00:46:53;;;;;;;8.25;7.43;;;20.60;99.90;;;20.63;93.83;97026.91;4984084;28;20091;-40
2022/07/25 00:49:19;;;;;;;9.25;7.32;;;20.60;99.90;;;20.60;93.77;97017.28;4987317;28;20113;-40
2022/07/25 00:51:45;;;;;;;8.98;7.55;;;20.50;99.90;;;20.57;94.61;97028.25;4987470;28;20033;-40
2022/07/25 00:54:11;;;;;;;9.32;7.68;;;20.50;99.90;;;20.54;95.19;97019.63;4988906;28;20658;-40
2022/07/25 00:56:38;;;;;;;8.85;7.95;;;20.50;99.90;;;20.51;96.03;97017.19;4987974;28;20059;-41
2022/07/25 00:59:03;;;;;;;8.55;7.65;;;20.50;99.90;;;20.49;96.54;97021.81;4990928;28;22148;-41
2022/07/25 01:01:29;;;;;;;8.63;7.60;;;20.40;99.90;;;20.44;96.75;97013.31;4987240;28;20053;-40
2022/07/25 01:03:55;;;;;;;9.48;7.82;;;20.40;99.90;;;20.22;96.99;96985.66;4983826;28;20096;-40
2022/07/25 01:06:21;;;;;;;10.70;8.07;;;20.40;99.90;;;20.37;97.19;97016.53;4969183;28;20030;-41
2022/07/25 01:08:48;;;;;;;10.05;8.15;;;20.30;99.90;;;20.36;98.02;97020.16;4981461;28;20034;-42
2022/07/25 01:11:14;;;;;;;9.38;8.07;;;20.30;99.90;;;20.32;98.56;97016.03;4983601;28;20032;-41
2022/07/25 01:13:40;;;;;;;10.60;8.25;;;20.30;99.90;;;20.30;98.96;97014.50;4978027;28;20034;-41
2022/07/25 01:16:06;;;;;;;10.65;8.82;;;20.20;99.90;;;20.27;98.51;97018.25;4947248;28;20108;-40
2022/07/25 01:18:33;;;;;;;9.68;7.97;;;20.20;99.90;;;20.21;98.77;97008.06;4986834;28;20157;-40
2022/07/25 01:21:00;;;;;;;9.68;8.00;;;20.20;99.90;;;20.23;98.77;97015.97;4985455;28;20026;-41
2022/07/25 01:23:26;;;;;;;11.20;7.95;;;20.20;99.90;;;20.18;99.17;97017.16;4983302;28;20143;-41
2022/07/25 01:25:52;;;;;;;10.00;8.10;;;20.20;99.90;;;20.17;99.06;97006.59;4984007;28;20037;-41
2022/07/25 01:28:18;;;;;;;9.25;8.23;;;20.10;99.90;;;20.16;99.22;96999.56;4985241;28;20196;-41
2022/07/25 01:30:44;;;;;;;9.20;7.30;;;20.10;99.90;;;20.12;99.03;96998.94;4990829;28;20116;-41
2022/07/25 01:33:15;;;;;;;8.80;7.85;;;20.10;99.90;;;20.13;98.91;97000.63;4989198;28;20042;-41
2022/07/25 01:35:42;;;;;;;8.33;7.43;;;20.10;99.90;;;20.11;98.62;96988.38;4989398;28;20181;-41
2022/07/25 01:38:07;;;;;;;8.27;7.47;;;20.10;99.90;;;20.11;98.49;96991.03;4979491;28;20292;-41
2022/07/25 01:40:33;;;;;;;8.00;7.20;;;20.10;99.90;;;20.10;98.06;96989.31;4984252;28;20103;-41
2022/07/25 01:42:59;;;;;;;8.07;6.82;;;20.10;99.90;;;20.09;97.37;96991.16;4989710;28;20034;-41
2022/07/25 01:45:24;;;;;;;9.80;8.10;;;20.00;99.90;;;20.09;96.19;96985.81;4988899;28;20124;-41
2022/07/25 01:47:50;;;;;;;8.85;7.60;;;20.10;99.90;;;20.15;94.90;96989.81;4989228;28;20101;-41
2022/07/25 01:50:16;;;;;;;8.68;7.07;;;20.10;99.90;;;20.17;94.77;96987.84;4992019;28;20030;-41
2022/07/25 01:52:43;;;;;;;8.10;6.82;;;20.10;99.90;;;20.15;94.86;96989.81;4992848;28;20049;-41
2022/07/25 01:55:09;;;;;;;7.80;7.00;;;20.10;99.90;;;20.12;94.49;96985.56;4994140;28;20208;-41
2022/07/25 01:57:36;;;;;;;7.05;6.35;;;20.10;99.90;;;20.09;94.32;96985.81;4990214;28;20038;-41
2022/07/25 02:00:07;;;;;;;7.75;6.95;;;20.10;99.90;;;20.04;94.76;96982.66;4990352;28;20041;-40
2022/07/25 02:02:32;;;;;;;7.90;6.90;;;20.00;99.90;;;20.02;94.90;96981.94;4979464;28;20244;-41
2022/07/25 02:04:58;;;;;;;7.80;7.00;;;20.00;99.90;;;19.98;95.04;96981.34;4983437;28;20030;-40
2022/07/25 02:07:24;;;;;;;7.70;6.82;;;20.00;99.90;;;19.98;94.58;96977.81;4987172;28;20518;-41
2022/07/25 02:09:49;;;;;;;7.88;7.07;;;19.90;99.90;;;19.97;94.96;96976.97;4986448;28;20034;-40
2022/07/25 02:12:15;;;;;;;8.50;7.05;;;19.90;99.90;;;19.96;94.74;96971.75;4988311;28;20026;-40
2022/07/25 02:14:41;;;;;;;9.70;7.45;;;19.90;99.90;;;19.92;95.43;96963.13;4994628;28;20045;-40
2022/07/25 02:17:07;;;;;;;7.68;6.95;;;19.90;99.90;;;19.91;95.70;96968.59;4988350;28;20036;-41
2022/07/25 02:19:33;;;;;;;9.80;7.30;;;19.90;99.90;;;19.89;96.50;96967.88;4975789;28;20056;-41
2022/07/25 02:21:59;;;;;;;9.25;7.18;;;19.80;99.90;;;19.87;96.86;96968.00;4984862;28;20080;-41
2022/07/25 02:24:24;;;;;;;9.05;7.38;;;19.90;99.90;;;19.85;97.86;96961.91;4993866;28;20037;-41
2022/07/25 02:26:50;;;;;;;9.13;7.82;;;19.80;99.90;;;19.84;98.28;96960.22;4988784;28;20038;-41
2022/07/25 02:29:16;;;;;;;9.45;8.15;;;19.80;99.90;;;19.82;98.63;96963.00;4991156;28;20667;-40
2022/07/25 02:31:42;;;;;;;8.82;7.93;;;19.80;99.90;;;19.81;98.59;96963.13;4986312;28;20526;-40
2022/07/25 02:34:07;;;;;;;8.73;7.32;;;19.80;99.90;;;19.79;98.59;96960.59;4991103;28;20033;-41
2022/07/25 02:36:33;;;;;;;8.88;7.65;;;19.80;99.90;;;19.77;99.28;96951.81;4988662;28;20590;-41
2022/07/25 02:38:59;;;;;;;8.60;7.70;;;19.70;99.90;;;19.74;99.07;96951.22;4986356;28;20294;-41
2022/07/25 02:41:24;;;;;;;10.50;7.90;;;19.70;99.90;;;19.73;98.85;96953.06;4982969;28;20038;-42
2022/07/25 02:43:50;;;;;;;8.70;7.68;;;19.70;99.90;;;19.74;98.29;96948.53;4989023;28;20413;-41
2022/07/25 02:46:16;;;;;;;8.50;7.35;;;19.70;99.90;;;19.73;98.13;96946.84;4990768;28;20033;-41
2022/07/25 02:48:42;;;;;;;8.05;7.25;;;19.70;99.90;;;19.59;98.13;96923.88;4983566;28;20080;-44
2022/07/25 02:51:07;;;;;;;8.10;7.30;;;19.70;99.90;;;19.68;98.25;96938.31;4994435;28;20036;-41
2022/07/25 02:53:33;;;;;;;9.07;6.80;;;19.60;99.90;;;19.67;97.56;96939.28;4990471;28;20502;-42
2022/07/25 02:55:59;;;;;;;9.52;7.85;;;19.60;99.90;;;19.68;96.91;96944.50;4989637;28;20518;-41
2022/07/25 02:58:25;;;;;;;8.18;7.30;;;19.60;99.90;;;19.68;95.66;96939.16;4988467;28;20038;-41
2022/07/25 03:00:50;;;;;;;7.95;7.15;;;19.70;99.90;;;19.71;95.86;96944.28;4984403;28;22154;-41
2022/07/25 03:03:16;;;;;;;9.52;6.70;;;19.70;99.90;;;19.69;95.71;96940.03;4985595;28;20041;-41
2022/07/25 03:05:42;;;;;;;7.32;6.57;;;19.70;99.90;;;19.61;95.99;96933.50;4975493;28;20394;-41
2022/07/25 03:08:07;;;;;;;8.75;7.22;;;19.60;99.90;;;19.62;95.68;96942.34;4985926;28;20109;-41
2022/07/25 03:10:35;;;;;;;8.05;7.10;;;19.60;99.90;;;19.64;94.97;96949.25;4985461;28;20050;-41
2022/07/25 03:13:01;;;;;;;7.47;6.65;;;19.60;99.90;;;19.64;93.66;96943.06;4982165;28;21044;-41
2022/07/25 03:15:27;;;;;;;8.15;6.80;;;19.60;99.90;;;19.71;93.47;96946.09;4990544;28;20038;-42
2022/07/25 03:17:53;;;;;;;9.07;6.88;;;19.70;99.90;;;19.70;93.17;96942.56;4994127;28;20099;-41
2022/07/25 03:20:18;;;;;;;7.68;6.28;;;19.70;99.90;;;19.68;93.50;96938.31;4991044;28;20487;-41
2022/07/25 03:22:44;;;;;;;8.68;6.50;;;19.60;99.90;;;19.64;93.47;96937.72;4988682;28;20034;-41
2022/07/25 03:25:10;;;;;;;7.78;6.20;;;19.60;99.90;;;19.57;93.86;96931.16;4991323;28;20033;-41
2022/07/25 03:27:35;;;;;;;7.93;7.13;;;19.60;99.90;;;19.52;92.99;96911.97;4992652;28;20080;-41
2022/07/25 03:30:02;;;;;;;7.93;6.85;;;19.60;99.90;;;19.63;92.36;96925.31;4993932;28;20469;-41
2022/07/25 03:32:28;;;;;;;9.50;7.07;;;19.60;99.90;;;19.64;92.09;96922.50;4994866;28;20401;-41
2022/07/25 03:34:53;;;;;;;7.88;6.65;;;19.60;99.90;;;19.63;92.13;96923.50;4975946;28;20042;-42
2022/07/25 03:37:19;;;;;;;8.40;6.50;;;19.60;99.90;;;19.60;92.33;96920.22;4990531;28;20030;-41
2022/07/25 03:39:45;;;;;;;8.40;6.20;;;19.60;99.90;;;19.58;92.53;96919.50;4989713;28;20038;-41
2022/07/25 03:42:11;;;;;;;7.93;6.45;;;19.60;99.90;;;19.57;92.52;96913.28;4992843;28;20029;-42
2022/07/25 03:44:37;;;;;;;7.70;6.88;;;19.60;99.90;;;19.55;92.85;96912.56;4995910;28;20029;-41
2022/07/25 03:47:04;;;;;;;7.60;6.53;;;19.50;99.90;;;19.57;92.26;96909.78;4992129;28;20131;-42
2022/07/25 03:49:30;;;;;;;8.07;6.60;;;19.50;99.90;;;19.59;91.77;96908.66;4993804;28;20033;-41
2022/07/25 03:51:55;;;;;;;9.50;6.65;;;19.60;99.90;;;19.59;91.67;96908.66;4970484;28;20069;-42
2022/07/25 03:54:21;;;;;;;7.68;6.63;;;19.60;99.90;;;19.62;91.84;96904.91;4993996;28;20527;-41
2022/07/25 03:56:49;;;;;;;7.03;6.20;;;19.60;99.90;;;19.63;91.58;96909.25;4971971;28;20446;-42
2022/07/25 03:59:19;;;;;;;11.13;7.00;;;19.60;99.90;;;19.64;91.68;96895.75;4982231;28;20053;-42
2022/07/25 04:01:47;;;;;;;8.38;7.20;;;19.60;99.90;;;19.64;91.09;96895.75;4987422;28;20029;-42
2022/07/25 04:04:13;;;;;;;7.75;6.35;;;19.70;99.90;;;19.63;91.02;96888.72;4994557;28;20034;-42
2022/07/25 04:06:39;;;;;;;7.65;6.85;;;19.70;99.90;;;19.63;91.31;96891.41;4987033;28;20040;-42
2022/07/25 04:09:07;;;;;;;7.47;6.68;;;19.70;99.90;;;19.69;91.18;96903.44;4981900;28;20398;-41
2022/07/25 04:11:34;;;;;;;7.85;7.03;;;19.70;99.90;;;19.70;91.11;96888.22;4978393;28;20068;-43
2022/07/25 04:14:04;;;;;;;7.60;6.85;;;19.70;99.90;;;19.70;90.98;96897.09;4997241;28;20026;-42
2022/07/25 04:16:30;;;;;;;7.75;6.80;;;19.70;99.90;;;19.73;90.89;96896.88;4996393;28;20029;-42
2022/07/25 04:18:56;;;;;;;9.18;7.10;;;19.70;99.90;;;19.80;90.18;96897.22;4994494;28;20041;-41
2022/07/25 04:21:22;;;;;;;7.70;6.88;;;19.80;99.90;;;19.81;90.44;96885.53;5002020;23;20676;-45
2022/07/25 04:23:48;;;;;;;11.48;7.07;;;19.80;99.90;;;19.94;89.77;96894.25;5026869;28;20079;-47
2022/07/25 04:26:15;;;;;;;7.68;6.80;;;19.90;99.90;;;19.97;89.69;96894.00;5033895;28;20036;-48
2022/07/25 04:28:41;;;;;;;7.38;6.53;;;20.00;99.90;;;19.97;89.75;96886.00;5032253;28;20584;-49
2022/07/25 04:31:06;;;;;;;8.63;7.10;;;20.00;99.90;;;20.04;89.09;96891.66;5027085;28;20107;-49
2022/07/25 04:33:35;;;;;;;9.30;7.32;;;20.00;99.90;;;20.11;88.47;96890.16;5011561;28;20064;-49
2022/07/25 04:36:01;;;;;;;9.32;7.00;;;20.00;99.90;;;20.18;88.27;96888.66;5017128;28;20033;-49
2022/07/25 04:38:27;;;;;;;7.55;6.80;;;20.20;99.90;;;20.26;87.71;96882.69;5010247;28;20372;-49
2022/07/25 04:40:52;;;;;;;8.90;6.72;;;20.20;99.90;;;20.34;87.09;96885.56;5028950;22;20050;-42
2022/07/25 04:43:20;;;;;;;8.18;6.80;;;20.40;99.90;;;20.45;86.71;96889.16;5003590;28;20057;-42
2022/07/25 04:45:46;;;;;;;8.73;7.03;;;20.40;99.90;;;20.55;85.38;96896.28;4998504;28;20531;-41
2022/07/25 04:48:12;;;;;;;7.78;6.97;;;20.50;99.90;;;20.67;85.02;96894.38;5018224;28;20057;-42
2022/07/25 04:50:37;;;;;;;8.05;7.25;;;20.70;99.90;;;20.73;84.61;96893.88;5010038;28;20114;-42
2022/07/25 04:53:04;;;;;;;8.55;6.70;;;20.70;99.90;;;20.84;84.12;96884.06;4996464;28;20026;-42
2022/07/25 04:55:31;;;;;;;9.85;6.88;;;20.80;99.90;;;20.90;83.82;96894.25;4994274;28;20033;-42
2022/07/25 04:57:57;;;;;;;6.95;6.25;;;20.90;99.90;;;20.97;83.51;96887.38;4994397;28;20030;-41
2022/07/25 05:00:23;;;;;;;7.40;6.60;;;20.90;99.90;;;20.97;84.03;96880.16;4995273;28;20046;-42
2022/07/25 05:02:50;;;;;;;9.13;7.10;;;21.00;99.90;;;21.11;83.55;96888.84;4994578;28;20033;-42
2022/07/25 05:05:16;;;;;;;8.27;7.15;;;21.10;99.90;;;21.20;82.85;96884.50;4995331;28;20034;-43
2022/07/25 05:07:42;;;;;;;9.18;7.70;;;21.10;99.90;;;21.29;82.53;96895.25;4990595;28;20584;-41
2022/07/25 05:10:08;;;;;;;8.63;7.32;;;21.20;99.90;;;21.38;82.08;96884.72;4988106;28;20061;-42
2022/07/25 05:12:34;;;;;;;7.72;6.85;;;21.30;99.90;;;21.47;81.48;96882.06;5000529;28;20022;-41
2022/07/25 05:15:01;;;;;;;8.13;6.90;;;21.40;99.90;;;21.53;81.34;96878.84;4991444;28;20033;-42
2022/07/25 05:17:27;;;;;;;9.13;6.78;;;21.50;99.90;;;21.63;80.96;96891.44;4991007;28;20468;-43
2022/07/25 05:19:52;;;;;;;10.23;7.97;;;21.60;99.90;;;21.72;80.67;96886.06;4996111;28;20293;-42
2022/07/25 05:22:18;;;;;;;8.40;7.05;;;21.70;99.90;;;21.82;79.62;96880.75;4999212;28;20116;-41
2022/07/25 05:24:43;;;;;;;10.30;7.88;;;21.80;99.90;;;21.93;79.07;96883.28;5000799;28;20120;-42
2022/07/25 05:27:09;;;;;;;9.00;6.63;;;21.90;99.90;;;22.07;78.80;96883.84;5000428;28;20033;-41
2022/07/25 05:29:35;;;;;;;7.18;6.45;;;22.10;99.90;;;22.23;78.52;96884.13;4994400;28;20371;-39
2022/07/25 05:32:00;;;;;;;9.35;6.88;;;22.20;99.90;;;22.37;77.83;96880.19;4994610;28;20081;-39
2022/07/25 05:34:26;;;;;;;8.90;6.78;;;22.40;99.90;;;22.53;77.13;96879.59;4991232;28;20123;-39
2022/07/25 05:36:52;;;;;;;7.63;6.82;;;22.50;99.90;;;22.67;75.80;96879.16;4988579;28;20038;-39
2022/07/25 05:39:17;;;;;;;8.85;7.15;;;22.60;99.90;;;22.87;74.96;96871.88;4992128;28;20454;-39
2022/07/25 05:41:43;;;;;;;7.68;6.88;;;22.80;99.90;;;23.23;73.48;96871.22;4989498;28;20049;-39
2022/07/25 05:44:09;;;;;;;9.27;6.90;;;23.00;99.90;;;23.86;70.81;96875.81;4988416;28;20517;-40
2022/07/25 05:46:34;;;;;;;9.70;6.82;;;23.40;99.90;;;24.52;66.61;96877.25;4981375;28;20045;-40
2022/07/25 05:49:00;;;;;;;8.32;7.18;;;23.80;99.90;;;25.34;61.83;96867.03;4992515;28;20054;-40
2022/07/25 05:51:27;;;;;;;7.55;6.80;;;24.30;99.90;;;26.07;58.06;96870.94;4980148;28;20113;-40
2022/07/25 05:53:53;;;;;;;7.78;6.97;;;24.90;99.90;;;26.39;56.48;96871.97;5004818;28;20112;-40
2022/07/25 05:56:19;;;;;;;8.20;6.97;;;25.20;99.20;;;26.45;54.81;96870.47;4995678;28;20315;-39
2022/07/25 05:58:45;;;;;;;7.57;6.80;;;25.50;98.30;;;26.39;54.17;96869.28;5004001;28;20077;-39
2022/07/25 06:01:12;;;;;;;8.70;7.18;;;25.60;97.30;;;26.29;54.66;96866.75;4998206;28;20034;-40
2022/07/25 06:03:38;;;;;;;9.57;7.32;;;25.70;97.10;;;26.15;55.27;96870.13;5001009;28;20042;-39
2022/07/25 06:06:04;;;;;;;9.05;7.80;;;25.60;97.00;;;26.01;55.83;96854.59;4997959;28;20061;-40
2022/07/25 06:08:30;;;;;;;11.85;8.55;;;25.60;97.00;;;25.82;56.60;96859.22;5003009;28;20112;-40
2022/07/25 06:10:59;;;;;;;9.15;7.88;;;25.50;96.90;;;25.71;57.85;96854.13;5001812;28;20030;-40
2022/07/25 06:13:26;;;;;;;9.10;7.60;;;25.40;97.20;;;25.65;58.10;96852.94;5002352;28;20042;-39
2022/07/25 06:15:53;;;;;;;8.95;7.85;;;25.40;97.30;;;25.60;59.07;96849.91;5000175;28;22915;-39
2022/07/25 06:18:18;;;;;;;9.20;7.15;;;25.30;97.50;;;25.60;59.12;96844.50;5002140;28;20391;-39
2022/07/25 06:20:44;;;;;;;9.23;7.93;;;25.30;97.60;;;25.60;58.19;96843.66;4999833;28;20042;-39
2022/07/25 06:23:10;;;;;;;8.57;7.43;;;25.40;97.10;;;25.66;57.99;96851.94;5002108;28;20033;-39
2022/07/25 06:25:35;;;;;;;8.48;7.57;;;25.40;96.90;;;25.76;57.90;96845.56;4998611;28;20041;-40
2022/07/25 06:28:01;;;;;;;8.18;7.28;;;25.50;96.90;;;25.82;57.61;96843.00;5003150;28;20030;-40
2022/07/25 06:30:27;;;;;;;8.48;7.57;;;25.60;96.50;;;25.87;57.37;96845.22;5002207;28;20481;-40
2022/07/25 06:32:53;;;;;;;9.38;7.72;;;25.70;96.50;;;25.93;55.66;96844.59;4999968;28;20022;-40
2022/07/25 06:35:19;;;;;;;8.02;7.22;;;25.80;96.10;;;26.01;56.33;96841.91;4998947;28;20037;-41
2022/07/25 06:37:45;;;;;;;8.50;7.60;;;25.80;95.80;;;26.13;55.41;96846.97;4998570;28;20029;-40
2022/07/25 06:40:11;;;;;;;10.80;7.90;;;25.90;95.40;;;26.19;54.84;96841.75;4996019;28;20045;-42
2022/07/25 06:42:46;;;;;;;10.52;8.32;;;26.00;95.10;;;26.30;54.17;96837.88;5006839;28;20040;-40
2022/07/25 06:45:14;;;;;;;8.32;7.43;;;26.20;94.80;;;26.42;53.92;96839.22;5002884;28;20081;-38
2022/07/25 06:47:41;;;;;;;9.20;7.43;;;26.30;94.50;;;26.55;53.28;96846.81;5002698;28;20030;-43
2022/07/25 06:50:11;;;;;;;7.07;6.38;;;26.40;94.30;;;26.68;52.68;96843.59;5003304;28;20116;-42
2022/07/25 06:52:37;;;;;;;9.57;7.35;;;26.50;94.00;;;26.80;52.02;96849.50;5004539;28;20030;-43
2022/07/25 06:55:05;;;;;;;8.25;7.45;;;26.70;93.40;;;26.89;51.54;96844.94;5003345;28;20403;-42
2022/07/25 06:57:31;;;;;;;7.78;6.97;;;26.70;93.30;;;27.01;51.06;96838.13;5002211;28;20030;-41
2022/07/25 06:59:56;;;;;;;8.63;7.20;;;26.80;93.00;;;27.15;50.62;96839.25;5001906;28;20040;-43
2022/07/25 07:02:22;;;;;;;7.57;6.85;;;27.00;92.80;;;27.28;50.22;96841.44;5004222;28;20033;-45
2022/07/25 07:04:48;;;;;;;12.43;7.30;;;27.10;92.20;;;27.42;49.99;96838.00;5001039;28;20037;-42
2022/07/25 07:07:15;;;;;;;9.35;7.82;;;27.20;92.00;;;27.53;48.94;96842.16;5005206;28;20267;-38
2022/07/25 07:09:41;;;;;;;10.82;7.90;;;27.30;91.50;;;27.57;47.96;96847.06;5004504;28;20568;-41
2022/07/25 07:12:08;;;;;;;9.90;8.40;;;27.40;90.80;;;27.64;48.18;96833.66;4999673;28;20072;-46
2022/07/25 07:14:34;;;;;;;10.15;8.13;;;27.50;90.80;;;27.74;48.30;96830.72;5006812;28;20092;-45
2022/07/25 07:16:59;;;;;;;10.02;7.03;;;27.60;90.90;;;27.89;48.34;96842.47;5005479;28;20022;-42
2022/07/25 07:19:25;;;;;;;9.40;8.40;;;27.70;91.00;;;27.97;48.09;96836.19;5003533;28;20080;-45
2022/07/25 07:21:51;;;;;;;11.82;8.43;;;27.70;90.50;;;28.06;48.45;96834.28;4999635;28;20068;-45
2022/07/25 07:24:17;;;;;;;15.05;8.68;;;27.90;90.70;;;28.15;48.14;96838.59;5003357;28;20449;-44
2022/07/25 07:26:43;;;;;;;9.10;8.15;;;27.90;90.40;;;28.18;47.88;96838.25;5003977;28;20498;-45
2022/07/25 07:29:09;;;;;;;10.57;8.88;;;28.00;90.10;;;28.26;47.99;96838.16;5003936;28;20033;-43
2022/07/25 07:31:35;;;;;;;13.43;8.65;;;28.10;90.20;;;28.31;47.56;96838.47;5003189;28;20555;-43
2022/07/25 07:34:01;;;;;;;9.77;8.70;;;28.10;90.00;;;28.41;48.27;96832.81;5004533;28;20155;-45
2022/07/25 07:36:28;;;;;;;10.35;8.85;;;28.20;90.30;;;28.56;48.03;96833.69;4994956;28;20036;-44
2022/07/25 07:38:54;;;;;;;8.90;8.00;;;28.30;90.10;;;28.74;48.22;96830.63;4981983;28;20053;-43
2022/07/25 07:41:20;;;;;;;9.82;8.68;;;28.50;90.20;;;28.86;48.44;96827.50;4985775;28;20026;-45
2022/07/25 07:43:45;;;;;;;12.20;8.57;;;28.60;90.10;;;28.96;47.55;96819.06;4991942;28;23539;-42
2022/07/25 07:46:11;;;;;;;9.95;8.95;;;28.70;90.10;;;29.03;46.82;96820.00;4991933;28;20432;-45
2022/07/25 07:48:37;;;;;;;10.95;9.45;;;28.80;88.80;;;29.06;47.34;96815.03;4996493;28;20048;-44
2022/07/25 07:51:03;;;;;;;9.30;8.30;;;28.80;89.40;;;29.16;46.64;96808.50;4997527;28;20065;-46
2022/07/25 07:56:15;;;;;;;10.32;9.25;;;29.00;88.20;;;29.22;46.18;96815.91;4999721;28;20041;-42
2022/07/25 07:58:42;;;;;;;9.05;8.20;;;29.00;87.00;;;29.30;46.51;96810.38;4990083;28;20281;-44
2022/07/25 08:01:07;;;;;;;12.75;9.57;;;29.00;87.70;;;29.29;45.98;96822.28;4993347;28;20033;-42
2022/07/25 08:03:33;;;;;;;12.13;9.35;;;29.10;87.30;;;29.32;45.60;96819.16;4991531;28;20036;-43
2022/07/25 08:05:59;;;;;;;10.77;8.45;;;29.10;85.90;;;29.39;46.07;96820.09;5000758;28;20038;-43
2022/07/25 08:08:25;;;;;;;11.75;8.23;;;29.20;86.50;;;29.45;45.15;96819.34;5002511;28;20073;-46
2022/07/25 08:10:51;;;;;;;10.07;9.07;;;29.20;85.40;;;29.51;45.21;96820.44;4998030;28;20050;-45
2022/07/25 08:13:26;;;;;;;10.45;9.10;;;29.30;84.00;;;29.60;44.42;96824.75;4996175;28;20170;-44
2022/07/25 08:15:56;;;;;;;9.60;8.60;;;29.40;82.30;;;29.66;42.64;96814.97;4998998;28;20026;-43
2022/07/25 08:18:23;;;;;;;10.35;9.27;;;29.40;81.00;;;29.73;42.66;96828.66;5002227;28;20581;-42
2022/07/25 08:20:50;;;;;;;9.63;8.55;;;29.50;81.10;;;29.80;41.25;96827.72;4999508;28;20075;-45
2022/07/25 08:23:16;;;;;;;9.07;8.18;;;29.50;78.10;;;29.87;41.91;96825.91;5003627;28;20539;-43
2022/07/25 08:25:43;;;;;;;9.77;8.15;;;29.60;78.60;;;29.95;41.71;96829.53;5003845;28;20080;-46
2022/07/25 08:28:09;;;;;;;10.05;8.40;;;29.70;78.60;;;29.99;40.92;96826.25;5004128;28;20042;-45
2022/07/25 08:30:37;;;;;;;11.52;8.15;;;29.70;77.10;;;30.01;40.10;96829.63;5002064;28;20034;-43
2022/07/25 08:33:08;;;;;;;8.15;7.35;;;29.80;75.80;;;30.12;40.38;96824.72;5002210;28;20022;-45
2022/07/25 08:35:34;;;;;;;9.27;8.23;;;29.80;76.70;;;30.21;39.79;96818.09;4999768;28;20110;-45
2022/07/25 08:38:02;;;;;;;9.32;8.38;;;29.90;75.30;;;30.27;39.83;96820.03;4998651;28;20033;-43
2022/07/25 08:40:30;;;;;;;9.90;7.97;;;30.00;74.40;;;30.31;39.79;96829.50;5001745;28;20637;-43
2022/07/25 08:42:57;;;;;;;9.70;8.70;;;30.00;74.30;;;30.32;39.75;96830.31;4999954;28;20034;-45
2022/07/25 08:45:25;;;;;;;11.30;8.50;;;30.00;74.30;;;30.29;39.50;96826.09;5001390;28;20079;-42
2022/07/25 08:47:53;;;;;;;9.32;8.43;;;30.00;73.60;;;30.29;39.32;96828.00;5003704;28;20084;-45
2022/07/25 08:50:22;;;;;;;8.52;7.63;;;30.10;73.00;;;30.32;39.30;96824.88;4999328;28;20116;-44
2022/07/25 08:52:49;;;;;;;9.68;7.63;;;30.10;73.10;;;30.37;39.80;96822.47;5000115;28;20028;-43
2022/07/25 08:55:21;;;;;;;9.02;8.13;;;30.10;74.30;;;30.44;39.38;96817.91;5002147;28;20026;-43
2022/07/25 08:57:50;;;;;;;11.23;8.70;;;30.20;71.90;;;30.59;40.60;96821.38;4996263;28;20037;-45
2022/07/25 09:00:25;;;;;;;8.63;7.82;;;30.30;75.40;;;30.57;37.91;96828.91;5001328;28;20030;-42
2022/07/25 09:03:05;;;;;;;8.82;7.47;;;30.30;70.30;;;30.61;37.98;96816.56;4999952;28;20034;-42
2022/07/25 09:05:32;;;;;;;9.65;7.90;;;30.40;70.10;;;30.69;37.73;96815.59;4998647;28;20034;-45
2022/07/25 09:08:10;;;;;;;9.35;7.88;;;30.40;69.80;;;30.70;37.50;96813.72;5000830;28;20160;-44
2022/07/25 09:10:38;;;;;;;7.68;6.88;;;30.40;69.00;;;30.75;35.59;96813.97;5001135;28;20038;-46
2022/07/25 09:13:13;;;;;;;9.18;7.45;;;30.50;66.10;;;30.84;36.39;96818.22;4999833;28;20398;-43
2022/07/25 09:15:55;;;;;;;7.63;6.88;;;30.60;67.00;;;31.04;36.58;96802.03;4999752;28;20057;-44
2022/07/25 09:18:26;;;;;;;;;;;30.70;67.10;;;31.14;36.26;96799.78;4986049;28;20022;-44
2022/07/25 09:20:54;;;;;;;8.45;7.65;;;30.90;66.30;;;31.19;35.99;96805.47;5000387;28;20447;-45
2022/07/25 09:23:44;;;;;;;9.80;7.88;;;31.00;65.50;;;31.20;35.44;96801.69;4991969;28;20128;-45
2022/07/25 09:26:12;;;;;;;9.10;7.50;;;31.00;65.00;;;31.22;35.84;96801.50;4996824;28;20033;-44
2022/07/25 09:28:48;;;;;;;10.95;7.72;;;31.00;65.10;;;31.34;36.66;96805.31;4999948;28;20048;-43
2022/07/25 09:31:17;;;;;;;8.15;7.00;;;31.10;66.20;;;31.47;39.22;96790.91;4991325;28;20399;-45
2022/07/25 09:33:55;;;;;;;9.35;8.32;;;31.20;68.20;;;31.44;35.70;96802.22;4996568;28;20403;-45
2022/07/25 09:36:22;;;;;;;8.68;7.88;;;31.20;64.80;;;31.44;35.94;96790.47;4994701;28;20175;-41
2022/07/25 09:38:59;;;;;;;8.73;7.75;;;31.20;64.40;;;31.54;37.86;96790.97;4998736;28;20041;-45
2022/07/25 09:41:37;;;;;;;8.65;7.80;;;31.20;67.70;;;31.58;36.71;96790.38;4997203;28;20026;-43
2022/07/25 09:44:29;;;;;;;8.90;8.00;;;31.30;66.50;;;31.69;35.67;96797.13;4996664;28;20029;-44
2022/07/25 09:47:09;;;;;;;12.52;8.13;;;31.40;64.80;;;31.70;34.52;96800.69;4992122;28;20391;-43
2022/07/25 09:49:46;;;;;;;8.30;7.38;;;31.40;63.00;;;31.72;35.11;96795.84;4994470;28;20089;-42
2022/07/25 09:52:13;;;;;;;11.15;8.52;;;31.50;63.00;;;31.69;36.39;96802.56;4993575;28;20418;-45
2022/07/25 09:54:39;;;;;;;10.02;8.30;;;31.50;64.50;;;31.73;37.54;96797.53;4999135;28;20072;-44
2022/07/25 09:57:05;;;;;;;9.73;7.00;;;31.50;66.70;;;31.80;37.16;96794.81;4993555;28;20026;-43
2022/07/25 09:59:35;;;;;;;10.05;8.63;;;31.60;66.50;;;31.87;36.16;96810.16;4997293;28;20072;-42
2022/07/25 10:02:28;;;;;;;9.00;8.20;;;31.60;64.00;;;31.90;34.88;96801.56;4997278;28;20026;-45
2022/07/25 10:05:14;;;;;;;10.60;8.52;;;31.70;64.10;;;31.86;35.98;96791.28;4994608;28;20061;-44
2022/07/25 10:07:46;;;;;;;9.20;7.65;;;31.70;63.30;;;31.88;35.78;96791.91;4992758;28;20038;-41
2022/07/25 10:10:27;;;;;;;13.30;8.30;;;31.60;63.40;;;31.91;35.74;96788.78;4977276;28;20034;-42
2022/07/25 10:13:02;;;;;;;9.60;8.00;;;31.70;63.20;;;31.95;35.19;96795.50;4995366;28;20080;-45
2022/07/25 10:15:51;;;;;;;9.80;7.93;;;31.70;62.60;;;31.84;34.55;96777.03;4990279;28;20026;-43
2022/07/25 10:18:26;;;;;;;8.02;7.22;;;31.60;61.00;;;31.84;34.89;96771.56;4996602;28;20048;-45
2022/07/25 10:21:13;;;;;;;8.93;7.28;;;31.60;61.50;;;31.88;36.00;96764.66;4995815;28;20040;-42